createdAt,value
2019-05-22T00:01:14.307Z,95.00
2019-05-22T00:04:03.114Z,94.50
2019-05-22T00:06:35.449Z,94.40
2019-05-22T00:09:09.057Z,94.70
2019-05-22T00:11:45.538Z,95.00
2019-05-22T00:14:17.094Z,94.70
2019-05-22T00:16:56.440Z,94.80
2019-05-22T00:19:28.349Z,95.10
2019-05-22T00:22:00.833Z,95.20
2019-05-22T00:24:32.491Z,95.20
2019-05-22T00:27:21.265Z,94.90
2019-05-22T00:29:54.053Z,94.70
2019-05-22T00:32:27.672Z,95.00
2019-05-22T00:34:58.814Z,94.70
2019-05-22T00:37:29.928Z,94.90
2019-05-22T00:40:00.855Z,94.70
2019-05-22T00:42:32.986Z,95.00
2019-05-22T00:45:04.927Z,95.30
2019-05-22T00:47:36.839Z,95.10
2019-05-22T00:50:10.129Z,95.20
2019-05-22T00:52:45.013Z,95.30
2019-05-22T00:55:33.497Z,94.90
2019-05-22T00:58:07.111Z,94.70
2019-05-22T01:00:49.642Z,94.50
2019-05-22T01:03:22.754Z,94.80
2019-05-22T01:05:54.764Z,94.80
2019-05-22T01:08:26.093Z,94.30
2019-05-22T01:10:57.914Z,94.70
2019-05-22T01:13:36.700Z,94.90
2019-05-22T01:16:08.526Z,94.60
2019-05-22T01:18:40.371Z,95.00
2019-05-22T01:21:15.218Z,95.20
2019-05-22T01:23:47.429Z,95.10
2019-05-22T01:26:19.388Z,95.20
2019-05-22T01:28:52.890Z,95.20
2019-05-22T01:31:34.541Z,95.30
2019-05-22T01:34:14.612Z,95.30
2019-05-22T01:36:50.751Z,95.40
2019-05-22T01:39:31.582Z,95.30
2019-05-22T01:42:03.606Z,95.10
2019-05-22T01:44:34.715Z,94.80
2019-05-22T01:47:09.565Z,94.70
2019-05-22T01:49:44.646Z,94.70
2019-05-22T01:52:18.089Z,95.00
2019-05-22T01:54:50.361Z,95.20
2019-05-22T01:57:21.490Z,95.40
2019-05-22T01:59:52.760Z,95.70
2019-05-22T02:02:24.779Z,95.80
2019-05-22T02:04:58.350Z,95.50
2019-05-22T02:07:29.290Z,95.20
2019-05-22T02:10:00.229Z,95.20
2019-05-22T02:12:59.563Z,95.60
2019-05-22T02:15:30.903Z,95.30
2019-05-22T02:18:03.116Z,95.60
2019-05-22T02:20:55.117Z,95.80
2019-05-22T02:23:25.395Z,95.50
2019-05-22T02:25:55.614Z,95.50
2019-05-22T02:28:27.062Z,95.40
2019-05-22T02:30:59.554Z,95.50
2019-05-22T02:33:32.085Z,95.90
2019-05-22T02:36:02.555Z,95.80
2019-05-22T02:38:33.735Z,95.70
2019-05-22T02:41:06.058Z,95.80
2019-05-22T02:43:37.662Z,95.90
2019-05-22T02:46:09.418Z,95.70
2019-05-22T02:48:42.397Z,95.60
2019-05-22T02:51:14.720Z,95.70
2019-05-22T02:53:45.647Z,96.00
2019-05-22T02:56:16.526Z,96.00
2019-05-22T02:58:47.072Z,96.40
2019-05-22T03:01:17.973Z,96.50
2019-05-22T03:03:49.564Z,96.30
2019-05-22T03:06:19.901Z,96.40
2019-05-22T03:08:59.747Z,96.60
2019-05-22T03:11:39.690Z,97.00
2019-05-22T03:14:11.385Z,96.50
2019-05-22T03:16:54.459Z,96.60
2019-05-22T03:19:27.537Z,97.00
2019-05-22T03:21:58.131Z,97.10
2019-05-22T03:24:29.149Z,97.00
2019-05-22T03:26:59.646Z,96.70
2019-05-22T03:29:53.592Z,96.80
2019-05-22T03:32:23.460Z,97.00
2019-05-22T03:34:56.363Z,97.20
2019-05-22T03:37:31.083Z,97.10
2019-05-22T03:40:01.819Z,97.00
2019-05-22T03:42:34.315Z,96.90
2019-05-22T03:45:10.531Z,96.90
2019-05-22T03:47:42.130Z,96.70
2019-05-22T03:50:15.103Z,96.70
2019-05-22T03:52:46.811Z,96.90
2019-05-22T03:55:18.097Z,96.90
2019-05-22T03:57:50.335Z,96.90
2019-05-22T04:00:22.628Z,97.10
2019-05-22T04:02:55.353Z,97.10
2019-05-22T04:05:27.922Z,97.10
2019-05-22T04:07:59.729Z,97.20
2019-05-22T04:10:40.796Z,97.10
2019-05-22T04:13:11.774Z,97.20
2019-05-22T04:15:42.562Z,97.60
2019-05-22T04:18:14.604Z,97.50
2019-05-22T04:20:46.265Z,97.40
2019-05-22T04:23:16.772Z,96.90
2019-05-22T04:25:47.124Z,96.70
2019-05-22T04:28:21.543Z,96.70
2019-05-22T04:30:59.816Z,96.70
2019-05-22T04:33:30.885Z,97.00
2019-05-22T04:36:03.032Z,97.10
2019-05-22T04:38:34.621Z,97.40
2019-05-22T04:41:25.777Z,97.10
2019-05-22T04:43:57.440Z,96.90
2019-05-22T04:46:29.355Z,96.70
2019-05-22T04:49:02.039Z,96.70
2019-05-22T04:51:32.784Z,96.70
2019-05-22T04:54:03.105Z,96.70
2019-05-22T04:56:34.604Z,96.70
2019-05-22T04:59:06.951Z,96.40
2019-05-22T05:01:37.449Z,96.50
2019-05-22T05:04:08.007Z,96.30
2019-05-22T05:06:39.658Z,96.20
2019-05-22T05:09:10.895Z,96.10
2019-05-22T05:11:41.344Z,95.70
2019-05-22T05:14:11.865Z,96.00
2019-05-22T05:16:42.359Z,96.10
2019-05-22T05:19:14.199Z,95.90
2019-05-22T05:21:48.799Z,95.60
2019-05-22T05:24:19.750Z,95.50
2019-05-22T05:26:53.374Z,95.50
2019-05-22T05:29:29.660Z,95.80
2019-05-22T05:32:00.407Z,96.20
2019-05-22T05:34:35.764Z,95.80
2019-05-22T05:37:08.196Z,95.70
2019-05-22T05:39:44.773Z,95.30
2019-05-22T05:42:15.815Z,95.20
2019-05-22T05:44:47.085Z,95.20
2019-05-22T05:47:20.798Z,95.30
2019-05-22T05:49:51.254Z,95.20
2019-05-22T05:52:26.617Z,95.80
2019-05-22T05:54:58.045Z,95.90
2019-05-22T05:57:38.891Z,95.60
2019-05-22T06:00:21.203Z,95.90
2019-05-22T06:02:56.780Z,95.80
2019-05-22T06:05:27.662Z,95.80
2019-05-22T06:07:58.626Z,95.50
2019-05-22T06:10:40.987Z,95.10
2019-05-22T06:13:11.685Z,95.10
2019-05-22T06:15:49.535Z,94.80
2019-05-22T06:18:35.611Z,94.70
2019-05-22T06:21:07.516Z,94.60
2019-05-22T06:23:41.100Z,94.00
2019-05-22T06:26:14.871Z,94.50
2019-05-22T06:28:45.569Z,94.30
2019-05-22T06:31:40.430Z,94.50
2019-05-22T06:34:11.162Z,94.50
2019-05-22T06:36:42.211Z,93.60
2019-05-22T06:39:13.906Z,93.90
2019-05-22T06:41:45.454Z,93.00
2019-05-22T06:44:36.902Z,93.30
2019-05-22T06:47:09.897Z,92.90
2019-05-22T06:49:42.132Z,93.10
2019-05-22T06:52:12.590Z,93.20
2019-05-22T06:54:43.662Z,93.20
2019-05-22T06:57:17.007Z,93.10
2019-05-22T07:00:10.658Z,92.70
2019-05-22T07:02:23.828Z,92.80
2019-05-22T07:04:55.641Z,93.10
2019-05-22T07:07:27.526Z,93.00
2019-05-22T07:09:57.961Z,92.20
2019-05-22T07:12:29.276Z,92.10
2019-05-22T07:15:20.687Z,92.30
2019-05-22T07:17:52.673Z,91.60
2019-05-22T07:20:24.111Z,91.50
2019-05-22T07:22:54.631Z,91.90
2019-05-22T07:25:26.599Z,91.50
2019-05-22T07:28:00.302Z,91.70
2019-05-22T07:30:31.590Z,91.20
2019-05-22T07:33:02.171Z,91.00
2019-05-22T07:35:49.764Z,91.30
2019-05-22T07:38:04.487Z,90.40
2019-05-22T07:40:36.874Z,89.50
2019-05-22T07:43:07.572Z,87.80
2019-05-22T07:45:38.552Z,86.50
2019-05-22T07:48:12.935Z,88.10
2019-05-22T07:50:48.514Z,88.90
2019-05-22T07:53:19.659Z,86.10
2019-05-22T07:55:52.756Z,86.10
2019-05-22T07:58:24.857Z,86.20
2019-05-22T08:00:57.535Z,85.70
2019-05-22T08:03:31.157Z,85.80
2019-05-22T08:06:03.112Z,83.70
2019-05-22T08:08:36.129Z,83.10
2019-05-22T08:11:07.589Z,83.00
2019-05-22T08:13:38.195Z,82.10
2019-05-22T08:16:10.584Z,83.50
2019-05-22T08:18:42.951Z,82.40
2019-05-22T08:21:16.090Z,81.50
2019-05-22T08:23:48.503Z,79.50
2019-05-22T08:26:21.079Z,79.10
2019-05-22T08:28:54.349Z,80.50
2019-05-22T08:31:27.697Z,78.50
2019-05-22T08:33:58.650Z,80.00
2019-05-22T08:36:31.067Z,80.40
2019-05-22T08:39:22.252Z,80.70
2019-05-22T08:41:54.030Z,75.50
2019-05-22T08:44:24.512Z,76.10
2019-05-22T08:46:54.661Z,77.40
2019-05-22T08:49:25.998Z,75.70
2019-05-22T08:51:57.583Z,75.00
2019-05-22T08:54:28.612Z,74.40
2019-05-22T08:57:00.665Z,72.70
2019-05-22T08:59:30.784Z,72.60
2019-05-22T09:02:04.508Z,74.20
2019-05-22T09:04:34.840Z,75.60
2019-05-22T09:07:05.628Z,73.20
2019-05-22T09:09:35.800Z,75.40
2019-05-22T09:12:07.567Z,75.00
2019-05-22T09:14:37.901Z,75.70
2019-05-22T09:17:08.727Z,72.50
2019-05-22T09:19:39.447Z,72.50
2019-05-22T09:22:09.750Z,69.90
2019-05-22T09:24:41.543Z,68.00
2019-05-22T09:27:12.674Z,67.70
2019-05-22T09:29:42.682Z,65.50
2019-05-22T09:32:14.138Z,64.30
2019-05-22T09:34:45.994Z,66.40
2019-05-22T09:37:16.751Z,66.10
2019-05-22T09:39:48.691Z,65.40
2019-05-22T09:42:19.370Z,62.40
2019-05-22T09:44:49.447Z,63.30
2019-05-22T09:47:22.598Z,63.40
2019-05-22T09:49:54.559Z,63.50
2019-05-22T09:52:26.665Z,62.30
2019-05-22T09:54:57.724Z,63.20
2019-05-22T09:57:27.921Z,61.30
2019-05-22T10:00:01.142Z,62.30
2019-05-22T10:02:34.482Z,59.80
2019-05-22T10:05:07.700Z,62.70
2019-05-22T10:07:55.555Z,61.00
2019-05-22T10:10:12.743Z,67.10
2019-05-22T10:12:46.594Z,62.90
2019-05-22T10:15:17.438Z,62.80
2019-05-22T10:17:51.168Z,62.60
2019-05-22T10:20:23.126Z,61.30
2019-05-22T10:23:13.992Z,61.20
2019-05-22T10:25:33.390Z,61.30
2019-05-22T10:28:06.190Z,59.80
2019-05-22T10:30:57.175Z,61.20
2019-05-22T10:33:28.734Z,58.30
2019-05-22T10:35:59.661Z,58.00
2019-05-22T10:38:30.410Z,59.20
2019-05-22T10:41:01.082Z,58.40
2019-05-22T10:43:32.091Z,59.10
2019-05-22T10:46:04.465Z,59.20
2019-05-22T10:48:34.985Z,58.10
2019-05-22T10:51:14.531Z,58.00
2019-05-22T10:53:45.235Z,57.70
2019-05-22T10:56:15.981Z,58.10
2019-05-22T10:58:47.542Z,57.40
2019-05-22T11:01:17.960Z,57.10
2019-05-22T11:03:48.558Z,58.30
2019-05-22T11:06:19.026Z,56.60
2019-05-22T11:08:49.341Z,57.60
2019-05-22T11:11:20.985Z,55.60
2019-05-22T11:14:01.336Z,56.90
2019-05-22T11:16:23.908Z,57.00
2019-05-22T11:18:54.843Z,58.30
2019-05-22T11:21:26.528Z,59.00
2019-05-22T11:23:57.186Z,57.70
2019-05-22T11:26:33.806Z,56.60
2019-05-22T11:29:08.990Z,57.00
2019-05-22T11:31:40.699Z,55.90
2019-05-22T11:34:11.319Z,58.00
2019-05-22T11:36:42.199Z,57.80
2019-05-22T11:39:14.840Z,56.20
2019-05-22T11:41:45.882Z,58.00
2019-05-22T11:44:16.557Z,55.90
2019-05-22T11:46:47.111Z,54.80
2019-05-22T11:49:17.414Z,56.20
2019-05-22T11:51:48.623Z,57.10
2019-05-22T11:54:18.965Z,56.50
2019-05-22T11:56:49.545Z,55.00
2019-05-22T11:59:19.967Z,55.80
2019-05-22T12:01:52.009Z,56.60
2019-05-22T12:04:22.785Z,55.20
2019-05-22T12:06:53.919Z,57.20
2019-05-22T12:09:25.433Z,56.50
2019-05-22T12:11:56.030Z,56.40
2019-05-22T12:14:27.947Z,55.10
2019-05-22T12:16:59.041Z,56.20
2019-05-22T12:19:31.806Z,59.10
2019-05-22T12:22:02.145Z,59.20
2019-05-22T12:24:37.154Z,56.60
2019-05-22T12:27:06.937Z,56.40
2019-05-22T12:29:38.379Z,57.30
2019-05-22T12:32:11.983Z,56.40
2019-05-22T12:34:42.828Z,56.20
2019-05-22T12:37:15.079Z,57.20
2019-05-22T12:39:46.139Z,54.90
2019-05-22T12:42:16.641Z,55.40
2019-05-22T12:44:47.693Z,55.70
2019-05-22T12:47:18.070Z,55.60
2019-05-22T12:49:49.972Z,56.00
2019-05-22T12:52:22.218Z,54.20
2019-05-22T12:54:53.495Z,54.70
2019-05-22T12:57:26.423Z,55.50
2019-05-22T13:00:02.203Z,54.30
2019-05-22T13:02:32.766Z,54.00
2019-05-22T13:05:05.026Z,52.00
2019-05-22T13:07:35.333Z,53.60
2019-05-22T13:10:09.608Z,52.60
2019-05-22T13:12:40.119Z,53.00
2019-05-22T13:15:14.235Z,52.80
2019-05-22T13:17:44.932Z,52.50
2019-05-22T13:20:18.690Z,51.50
2019-05-22T13:22:50.223Z,51.00
2019-05-22T13:25:24.642Z,49.00
2019-05-22T13:27:55.267Z,48.30
2019-05-22T13:30:28.745Z,47.70
2019-05-22T13:33:09.158Z,48.10
2019-05-22T13:35:40.967Z,48.30
2019-05-22T13:38:13.336Z,48.90
2019-05-22T13:40:44.538Z,48.60
2019-05-22T13:43:16.649Z,48.90
2019-05-22T13:45:47.659Z,49.00
2019-05-22T13:48:19.463Z,47.30
2019-05-22T13:50:50.035Z,48.50
2019-05-22T13:53:21.719Z,45.90
2019-05-22T13:55:52.671Z,46.80
2019-05-22T13:58:25.395Z,46.10
2019-05-22T14:00:55.745Z,44.70
2019-05-22T14:03:26.345Z,46.00
2019-05-22T14:05:59.369Z,48.20
2019-05-22T14:08:29.937Z,47.00
2019-05-22T14:11:00.809Z,46.00
2019-05-22T14:13:31.364Z,45.20
2019-05-22T14:16:01.821Z,45.60
2019-05-22T14:18:32.108Z,46.20
2019-05-22T14:21:05.260Z,47.80
2019-05-22T14:23:35.391Z,47.50
2019-05-22T14:26:05.643Z,48.90
2019-05-22T14:28:37.155Z,50.20
2019-05-22T14:31:07.705Z,51.10
2019-05-22T14:33:40.606Z,49.80
2019-05-22T14:36:12.901Z,50.50
2019-05-22T14:38:43.957Z,51.10
2019-05-22T14:41:14.579Z,52.30
2019-05-22T14:43:45.026Z,49.40
2019-05-22T14:46:15.410Z,50.10
2019-05-22T14:48:45.741Z,50.50
2019-05-22T14:51:17.379Z,52.10
2019-05-22T14:53:48.841Z,50.50
2019-05-22T14:56:19.291Z,49.60
2019-05-22T14:58:51.171Z,49.20
2019-05-22T15:01:22.811Z,50.50
2019-05-22T15:03:54.927Z,51.80
2019-05-22T15:06:26.120Z,53.00
2019-05-22T15:08:57.735Z,51.30
2019-05-22T15:11:28.194Z,54.50
2019-05-22T15:13:58.609Z,54.70
2019-05-22T15:16:28.977Z,53.80
2019-05-22T15:19:03.447Z,53.00
2019-05-22T15:21:38.549Z,54.10
2019-05-22T15:24:09.468Z,53.90
2019-05-22T15:26:40.499Z,55.50
2019-05-22T15:29:11.101Z,54.30
2019-05-22T15:31:42.977Z,54.10
2019-05-22T15:34:14.601Z,55.50
2019-05-22T15:36:46.613Z,55.20
2019-05-22T15:39:20.562Z,55.60
2019-05-22T15:41:51.692Z,56.90
2019-05-22T15:44:23.457Z,56.40
2019-05-22T15:46:54.095Z,55.20
2019-05-22T15:49:29.727Z,54.20
2019-05-22T15:52:01.050Z,55.30
2019-05-22T15:54:34.309Z,55.90
2019-05-22T15:57:09.846Z,56.60
2019-05-22T15:59:41.310Z,55.80
2019-05-22T16:02:14.051Z,55.70
2019-05-22T16:04:44.933Z,55.60
2019-05-22T16:07:17.193Z,56.20
2019-05-22T16:09:49.043Z,55.90
2019-05-22T16:12:19.814Z,57.40
2019-05-22T16:14:51.734Z,57.40
2019-05-22T16:17:22.785Z,57.00
2019-05-22T16:19:54.397Z,56.80
2019-05-22T16:22:25.747Z,56.80
2019-05-22T16:24:57.258Z,55.40
2019-05-22T16:27:32.088Z,55.30
2019-05-22T16:33:35.929Z,55.80
2019-05-22T16:36:09.318Z,56.30
2019-05-22T16:38:42.818Z,57.60
2019-05-22T16:41:13.711Z,58.90
2019-05-22T16:43:49.538Z,58.00
2019-05-22T16:46:22.491Z,58.10
2019-05-22T16:48:57.730Z,58.60
2019-05-22T16:51:30.305Z,58.50
2019-05-22T16:54:07.712Z,57.90
2019-05-22T16:56:39.532Z,57.70
2019-05-22T16:59:13.861Z,57.60
2019-05-22T17:01:58.972Z,57.30
2019-05-22T17:04:21.690Z,57.00
2019-05-22T17:07:03.610Z,56.70
2019-05-22T17:09:35.881Z,57.30
2019-05-22T17:12:09.521Z,57.70
2019-05-22T17:14:43.521Z,56.10
2019-05-22T17:17:23.192Z,56.80
2019-05-22T17:19:53.988Z,57.70
2019-05-22T17:22:40.683Z,57.70
2019-05-22T17:25:25.237Z,58.30
2019-05-22T17:33:38.414Z,59.20
2019-05-22T17:36:13.406Z,61.80
2019-05-22T17:38:44.456Z,62.10
2019-05-22T17:41:17.415Z,63.60
2019-05-22T17:43:51.248Z,63.20
2019-05-22T17:46:26.603Z,65.50
2019-05-22T17:49:05.803Z,66.10
2019-05-22T17:51:37.227Z,66.30
2019-05-22T17:54:14.651Z,67.40
2019-05-22T17:56:52.460Z,63.40
2019-05-22T18:02:16.421Z,63.20
2019-05-22T18:04:51.634Z,62.40
2019-05-22T18:07:26.684Z,63.60
2019-05-22T18:09:59.256Z,63.00
2019-05-22T18:15:30.058Z,66.60
2019-05-22T18:18:03.453Z,67.30
2019-05-22T18:20:42.387Z,67.70
2019-05-22T18:23:06.892Z,67.20
2019-05-22T18:25:38.976Z,67.10
2019-05-22T18:28:14.715Z,67.70
2019-05-22T18:30:51.416Z,68.40
2019-05-22T18:33:23.292Z,68.70
2019-05-22T18:35:53.502Z,68.70
2019-05-22T18:38:29.975Z,69.30
2019-05-22T18:41:00.197Z,70.20
2019-05-22T18:43:32.530Z,71.20
2019-05-22T18:46:08.721Z,71.90
2019-05-22T18:48:39.540Z,72.60
2019-05-22T18:51:14.098Z,73.00
2019-05-22T18:53:58.572Z,73.40
2019-05-22T18:56:30.611Z,73.10
2019-05-22T18:59:02.846Z,73.70
2019-05-22T19:01:34.834Z,73.00
2019-05-22T19:04:12.065Z,72.20
2019-05-22T19:06:44.054Z,72.10
2019-05-22T19:09:17.198Z,72.20
2019-05-22T19:11:49.104Z,72.10
2019-05-22T19:14:19.637Z,72.30
2019-05-22T19:16:49.864Z,72.20
2019-05-22T19:19:20.379Z,71.10
2019-05-22T19:21:50.618Z,71.40
2019-05-22T19:24:21.362Z,71.70
2019-05-22T19:26:52.283Z,71.70
2019-05-22T19:29:23.394Z,72.10
2019-05-22T19:31:53.556Z,71.70
2019-05-22T19:34:24.200Z,71.70
2019-05-22T19:36:56.401Z,71.60
2019-05-22T19:39:28.435Z,71.30
2019-05-22T19:42:04.107Z,71.30
2019-05-22T19:44:37.005Z,71.80
2019-05-22T19:47:25.634Z,72.00
2019-05-22T19:49:59.995Z,71.80
2019-05-22T19:52:41.537Z,72.20
2019-05-22T19:55:09.515Z,73.00
2019-05-22T19:57:45.678Z,73.80
2019-05-22T20:00:28.639Z,74.30
2019-05-22T20:03:03.515Z,74.60
2019-05-22T20:05:37.527Z,75.00
2019-05-22T20:08:09.714Z,75.80
2019-05-22T20:10:43.996Z,76.30
2019-05-22T20:13:17.075Z,76.40
2019-05-22T20:15:56.580Z,76.60
2019-05-22T20:18:41.313Z,77.20
2019-05-22T20:21:11.946Z,77.80
2019-05-22T20:23:47.510Z,78.10
2019-05-22T20:26:19.813Z,78.80
2019-05-22T20:28:50.405Z,79.20
2019-05-22T20:31:22.080Z,79.40
2019-05-22T20:33:53.490Z,79.80
2019-05-22T20:36:28.455Z,80.10
2019-05-22T20:39:01.853Z,80.30
2019-05-22T20:41:34.275Z,80.90
2019-05-22T20:44:06.413Z,81.50
2019-05-22T20:46:38.505Z,81.70
2019-05-22T20:49:15.546Z,81.80
2019-05-22T20:51:53.849Z,82.30
2019-05-22T20:54:28.521Z,82.50
2019-05-22T20:57:07.157Z,83.30
2019-05-22T20:59:34.888Z,82.60
2019-05-22T21:02:25.109Z,82.70
2019-05-22T21:04:57.044Z,82.70
2019-05-22T21:07:35.009Z,82.70
2019-05-22T21:10:26.862Z,82.30
2019-05-22T21:12:57.583Z,82.10
2019-05-22T21:15:31.452Z,82.40
2019-05-22T21:18:02.384Z,82.60
2019-05-22T21:20:34.035Z,82.40
2019-05-22T21:23:08.382Z,82.90
2019-05-22T21:25:41.382Z,82.60
2019-05-22T21:28:18.500Z,83.00
2019-05-22T21:30:49.820Z,83.00
2019-05-22T21:33:26.481Z,82.90
2019-05-22T21:35:59.678Z,82.70
2019-05-22T21:38:37.054Z,82.50
2019-05-22T21:41:07.776Z,82.40
2019-05-22T21:43:38.907Z,81.50
2019-05-22T21:46:09.886Z,81.20
2019-05-22T21:48:40.041Z,81.10
2019-05-22T21:51:13.385Z,80.60
2019-05-22T21:53:44.483Z,80.50
2019-05-22T21:56:28.248Z,80.80
2019-05-22T21:59:08.641Z,79.80
2019-05-22T22:01:52.431Z,79.10
2019-05-22T22:07:22.892Z,78.00
2019-05-22T22:09:54.938Z,77.70
2019-05-22T22:12:32.963Z,77.70
2019-05-22T22:15:05.705Z,76.50
2019-05-22T22:17:36.994Z,75.40
2019-05-22T22:20:08.498Z,75.90
2019-05-22T22:22:38.782Z,77.10
2019-05-22T22:25:31.694Z,77.60
2019-05-22T22:28:05.394Z,78.50
2019-05-22T22:30:38.719Z,79.20
2019-05-22T22:33:15.134Z,79.00
2019-05-22T22:35:45.386Z,78.60
2019-05-22T22:38:16.003Z,78.70
2019-05-22T22:40:48.314Z,79.50
2019-05-22T22:43:20.554Z,80.00
2019-05-22T22:46:10.843Z,80.30
2019-05-22T22:48:46.831Z,80.00
2019-05-22T22:51:21.966Z,81.20
2019-05-22T22:53:56.663Z,81.30
2019-05-22T22:56:26.874Z,81.10
2019-05-22T23:01:52.743Z,81.80
2019-05-22T23:04:27.077Z,82.40
2019-05-22T23:07:00.429Z,82.70
2019-05-22T23:09:30.548Z,83.30
2019-05-22T23:12:03.818Z,83.20
2019-05-22T23:14:38.594Z,83.50
2019-05-22T23:17:11.289Z,84.10
2019-05-22T23:19:42.033Z,84.20
2019-05-22T23:22:12.771Z,83.30
2019-05-22T23:24:44.478Z,84.00
2019-05-22T23:27:15.780Z,83.40
2019-05-22T23:29:50.994Z,83.50
2019-05-22T23:32:24.187Z,84.50
2019-05-22T23:34:59.350Z,84.80
2019-05-22T23:37:32.470Z,85.50
2019-05-22T23:40:04.269Z,86.40
2019-05-22T23:42:40.204Z,86.60
2019-05-22T23:45:16.933Z,86.10
2019-05-22T23:47:58.821Z,85.90
2019-05-22T23:50:34.622Z,86.30
2019-05-22T23:53:08.482Z,85.90
2019-05-22T23:55:40.861Z,85.30
2019-05-22T23:58:12.883Z,85.60
